Rhineland, Missouri
Current Conditions -  °F | °C
As of 5:55 AM on Thursday 27 Nov 2014 (Local Time) from KFYG Reporting Station
Overcast Overcast  
Wind Chill: 21°   Ceiling: 1600
Heat Index: 32°   Visibility: 8mi
Dew Point: 25°   Wind: 16mph
Humidity: 75%   Direction: 340°NNW
Pressure: 30.42"   Gusts: 23mph
Location:  38.72°N, 91.52°W
Report Text: KFYG 271155Z AUTO 34014G20KT 8SM OVC016 00/M04 A3042 RMK AO2
Loading
Personal Weather Stations






























Interactive Weather Map New forecast layout! Learn more

10-Day Weather Forecast

Advertisements
Track Severe Weather on mobile